KF4PPJ Weather Reports


Display with metric or nautical units.
time (UTC)temp
F
wind
direction
speed
MPH
gust
MPH
rain 1hr
in
rain 24hr
in
rain mn
in
humidity
%
barometer
mb
20240521205810 52 237 2.0 5.0 0.00 0.40 0.40 98 1018.9
20240521205310 52 299 1.0 5.0 0.00 0.40 0.40 98 1019.0
20240521204808 52 295 5.0 8.0 0.00 0.40 0.40 98 1018.9
20240521204307 52 160 3.0 5.0 0.00 0.40 0.40 98 1018.9
20240521203805 51 200 3.0 8.0 0.00 0.40 0.40 98 1018.8
20240521203305 51 223 1.0 9.0 0.00 0.40 0.40 99 1019.1
20240521202803 51 218 1.0 5.0 0.00 0.40 0.40 99 1019.2
20240521202302 51 199 1.0 6.0 0.00 0.40 0.40 99 1019.1
20240521201800 51 185 1.0 6.0 0.00 0.40 0.40 99 1019.4
20240521201259 51 222 4.0 6.0 0.07 0.40 0.40 99 1019.3
20240521200759 51 283 9.0 11.0 0.07 0.40 0.40 99 1019.5
20240521200258 51 224 3.0 3.0 0.04 0.39 0.39 99 1019.6
20240521195757 51 246 2.0 10.0 0.11 0.39 0.39 99 1019.6
20240521195255 51 205 3.0 3.0 0.07 0.38 0.38 99 1019.5
20240521194755 51 265 3.0 9.0 0.04 0.37 0.37 99 1019.6
20240521194254 51 221 5.0 11.0 0.11 0.37 0.37 99 1019.8
20240521193752 51 210 1.0 3.0 0.07 0.36 0.36 99 1019.7
20240521193251 51 236 4.0 10.0 0.00 0.35 0.35 99 1019.7
20240521192750 51 199 5.0 9.0 0.04 0.35 0.35 99 1019.8
20240521192248 51 240 1.0 6.0 0.00 0.34 0.34 99 1019.9
20240521191747 51 193 3.0 6.0 0.07 0.34 0.34 99 1020.0
20240521191246 51 216 3.0 8.0 0.07 0.34 0.34 99 1020.0
20240521190746 50 197 3.0 7.0 0.00 0.33 0.33 99 1020.0
20240521190245 50 217 1.0 5.0 0.07 0.33 0.33 99 1020.1
20240521185744 50 220 3.0 6.0 0.07 0.33 0.33 99 1020.2
20240521185244 50 206 5.0 10.0 0.00 0.31 0.31 99 1020.2
20240521184741 50 238 1.0 6.0 0.04 0.31 0.31 99 1020.2
20240521184241 50 235 2.0 6.0 0.07 0.31 0.31 99 1020.3
20240521183740 50 219 2.0 10.0 0.07 0.31 0.31 99 1020.3
20240521183239 50 218 2.0 9.0 0.04 0.29 0.29 99 1020.6
20240521182738 50 257 2.0 5.0 0.11 0.29 0.29 99 1020.4
20240521182236 50 171 0.0 6.0 0.07 0.29 0.29 99 1020.6
20240521181735 50 243 3.0 7.0 0.04 0.28 0.28 99 1020.6
20240521181234 50 199 3.0 5.0 0.00 0.27 0.27 99 1020.7
20240521180732 50 200 4.0 9.0 0.07 0.27 0.27 99 1020.7
20240521180231 50 224 2.0 3.0 0.07 0.27 0.27 99 1020.8
20240521175729 50 216 3.0 7.0 0.04 0.26 0.26 99 1020.8
20240521175228 50 221 5.0 7.0 0.04 0.26 0.26 99 1020.9
20240521174727 50 171 1.0 8.0 0.07 0.25 0.25 99 1020.9
20240521174225 50 203 2.0 5.0 0.07 0.25 0.25 99 1020.9
20240521173723 50 230 4.0 13.0 0.04 0.24 0.24 99 1021.0
20240521173222 50 206 1.0 5.0 0.07 0.23 0.23 99 1020.7
20240521172720 50 213 3.0 5.0 0.07 0.23 0.23 99 1021.1
20240521172219 50 237 3.0 5.0 0.04 0.22 0.22 99 1021.2
20240521171717 50 204 1.0 7.0 0.07 0.21 0.21 99 1021.2
20240521171216 50 198 3.0 3.0 0.07 0.20 0.20 99 1020.9
20240521170716 49 182 2.0 2.0 0.07 0.20 0.20 99 1021.3
20240521170215 50 211 3.0 3.0 0.04 0.18 0.18 99 1021.3
20240521165712 49 229 5.0 6.0 0.04 0.18 0.18 99 1021.3
20240521165211 49 195 5.0 8.0 0.00 0.18 0.18 99 1021.2
20240521164710 49 234 5.0 8.0 0.07 0.18 0.18 99 1021.1
20240521164209 49 240 5.0 7.0 0.00 0.16 0.16 99 1021.1
20240521163707 49 184 2.0 5.0 0.00 0.16 0.16 99 1021.2
20240521163206 49 201 4.0 9.0 0.04 0.16 0.16 99 1021.3
20240521162704 49 204 5.0 7.0 0.04 0.16 0.16 98 1021.3
20240521162203 49 216 3.0 9.0 0.00 0.16 0.16 98 1021.4
20240521161703 49 223 5.0 6.0 0.07 0.16 0.16 98 1021.6
20240521161202 49 196 2.0 5.0 0.07 0.16 0.16 98 1021.5
20240521160702 49 210 3.0 5.0 0.00 0.15 0.15 98 1021.3
20240521160201 49 202 4.0 8.0 0.04 0.15 0.15 98 1021.6
20240521155700 49 289 5.0 7.0 0.04 0.15 0.15 98 1021.6
20240521155158 49 217 1.0 7.0 0.07 0.14 0.14 98 1021.5
20240521154657 49 243 4.0 8.0 0.07 0.14 0.14 99 1021.6
20240521154156 49 281 4.0 6.0 0.04 0.13 0.13 99 1021.9
20240521153655 49 215 2.0 3.0 0.00 0.12 0.12 99 1021.8
20240521153153 49 162 0.0 2.0 0.07 0.12 0.12 99 1021.7
20240521152651 49 223 2.0 6.0 0.04 0.11 0.11 99 1021.7
20240521152149 49 226 5.0 7.0 0.04 0.11 0.11 99 1021.9
20240521151648 49 218 4.0 8.0 0.07 0.10 0.10 99 1021.8
20240521151148 49 230 3.0 8.0 0.07 0.10 0.10 99 1021.8
20240521150647 49 286 2.0 3.0 0.04 0.09 0.09 99 1022.2
20240521150146 49 229 2.0 5.0 0.04 0.09 0.09 99 1022.2
20240521145644 48 251 4.0 6.0 0.07 0.08 0.08 99 1022.1
20240521145143 48 170 3.0 6.0 0.14 0.08 0.08 98 1022.1
20240521144642 48 242 4.0 6.0 0.07 0.07 0.07 98 1022.2
20240521144141 48 232 2.0 7.0 0.04 0.05 0.05 98 1022.3
20240521143639 48 218 0.0 5.0 0.07 0.05 0.05 98 1022.4
20240521143137 48 210 3.0 5.0 0.07 0.05 0.05 98 1022.4
20240521142636 48 197 1.0 3.0 0.04 0.03 0.03 98 1022.4
20240521142136 48 226 1.0 2.0 0.04 0.03 0.03 97 1022.6
20240521141634 48 240 1.0 6.0 0.07 0.03 0.03 97 1022.5
20240521141133 48 124 3.0 5.0 0.07 0.03 0.03 97 1022.4
20240521140631 48 214 2.0 3.0 0.00 0.02 0.02 97 1022.6
20240521140111 48 205 3.0 3.0 0.04 0.02 0.02 96 1022.4
20240521135609 48 222 2.0 5.0 0.04 0.02 0.02 96 1022.5
20240521135109 48 115 3.0 6.0 0.00 0.01 0.01 96 1022.6
20240521134607 49 179 1.0 3.0 0.07 0.01 0.01 95 1022.9
20240521134105 49 197 0.0 2.0 0.07 0.01 0.01 94 1022.8
20240521133604 49 162 1.0 2.0 0.00 0.00 0.00 94 1022.9
20240521133103 49 205 0.0 6.0 0.00 0.00 0.00 93 1022.8
20240521132602 49 270 1.0 3.0 0.00 0.00 0.00 92 1022.8
20240521132100 49 248 3.0 6.0 0.00 0.00 0.00 91 1022.7
20240521131600 49 213 3.0 8.0 0.00 0.00 0.00 90 1022.9
20240521131059 49 220 4.0 6.0 0.00 0.00 0.00 89 1023.0
20240521130556 49 193 0.0 3.0 0.00 0.00 0.00 89 1022.9
20240521130055 49 207 1.0 2.0 0.00 0.00 0.00 88 1023.0
20240521125554 49 180 2.0 5.0 0.00 0.00 0.00 88 1022.9
20240521125053 49 222 3.0 5.0 0.00 0.00 0.00 88 1023.0
20240521124551 49 224 1.0 5.0 0.00 0.00 0.00 87 1023.2
20240521124051 49 124 1.0 3.0 0.00 0.00 0.00 87 1023.0
20240521123550 48 220 3.0 3.0 0.00 0.00 0.00 88 1022.9
20240521123049 48 232 1.0 2.0 0.00 0.00 0.00 88 1023.0
20240521122546 48 260 0.0 1.0 0.00 0.00 0.00 88 1023.0
20240521122044 48 211 0.0 1.0 0.00 0.00 0.00 89 1023.1
20240521121542 48 152 1.0 1.0 0.00 0.00 0.00 89 1023.1
20240521121040 47 226 3.0 5.0 0.00 0.00 0.00 90 1023.1
20240521120537 47 178 0.0 1.0 0.00 0.00 0.00 93 1023.2
20240521120036 46 182 3.0 3.0 0.00 0.00 0.00 94 1023.5
20240521115535 46 179 0.0 0.0 0.00 0.00 0.00 95 1023.3
20240521115034 45 178 0.0 2.0 0.00 0.00 0.00 96 1023.4
20240521114533 45 178 0.0 0.0 0.00 0.00 0.00 96 1023.5
20240521114032 45 178 1.0 1.0 0.00 0.00 0.00 96 1023.7
20240521113530 45 178 0.0 0.0 0.00 0.00 0.00 96 1023.4
20240521113029 45 178 0.0 0.0 0.00 0.00 0.00 97 1023.6
20240521112529 44 178 0.0 0.0 0.00 0.00 0.00 97 1023.7
20240521112028 44 178 0.0 0.0 0.00 0.00 0.00 98 1023.6
20240521111526 44 178 0.0 0.0 0.00 0.00 0.00 98 1023.8
20240521111024 44 178 0.0 1.0 0.00 0.00 0.00 98 1023.8
20240521110524 44 178 0.0 0.0 0.00 0.00 0.00 98 1023.7
20240521110023 44 178 0.0 0.0 0.00 0.00 0.00 98 1023.7
20240521105520 44 178 0.0 0.0 0.00 0.00 0.00 98 1023.7
20240521105019 44 178 0.0 1.0 0.00 0.00 0.00 98 1023.9
20240521104517 44 178 0.0 0.0 0.00 0.00 0.00 98 1024.0
20240521104015 44 178 0.0 0.0 0.00 0.00 0.00 98 1023.9
20240521103513 44 178 0.0 0.0 0.00 0.00 0.00 97 1024.0
20240521103012 44 178 0.0 0.0 0.00 0.00 0.00 97 1024.1
20240521102510 44 178 0.0 0.0 0.00 0.00 0.00 97 1024.3
20240521102008 44 178 0.0 0.0 0.00 0.00 0.00 97 1024.3
20240521101506 44 178 0.0 0.0 0.00 0.00 0.00 96 1024.1
20240521101004 44 178 0.0 1.0 0.00 0.00 0.00 96 1024.3
20240521100503 45 178 0.0 1.0 0.00 0.00 0.00 96 1024.2
20240521100001 44 178 0.0 0.0 0.00 0.00 0.00 96 1024.4
20240521095500 44 178 0.0 0.0 0.00 0.00 0.00 96 1024.3
20240521094958 45 178 0.0 0.0 0.00 0.00 0.00 95 1024.3
20240521094455 45 178 0.0 0.0 0.00 0.00 0.00 95 1024.5
20240521093953 45 178 0.0 0.0 0.00 0.00 0.00 95 1024.6
20240521093451 45 178 0.0 0.0 0.00 0.00 0.00 95 1024.5
20240521092947 45 179 0.0 0.0 0.00 0.00 0.00 94 1024.5
20240521092445 46 178 0.0 0.0 0.00 0.00 0.00 94 1024.5
20240521091943 46 178 0.0 0.0 0.00 0.00 0.00 94 1024.4
20240521091442 46 178 0.0 0.0 0.00 0.00 0.00 93 1024.4
20240521090940 46 178 0.0 1.0 0.00 0.00 0.00 93 1024.6
20240521090438 46 179 0.0 1.0 0.00 0.00 0.00 93 1024.6
20240521085938 46 179 0.0 1.0 0.00 0.00 0.00 92 1024.5
20240521085436 47 178 1.0 1.0 0.00 0.00 0.00 91 1024.8
20240521084935 47 179 0.0 1.0 0.00 0.00 0.00 91 1024.6
20240521084433 47 143 0.0 2.0 0.00 0.00 0.00 91 1024.7
20240521083931 47 200 0.0 0.0 0.00 0.00 0.00 91 1024.8
20240521083431 47 158 0.0 0.0 0.00 0.00 0.00 91 1024.6
20240521082931 48 191 0.0 0.0 0.00 0.00 0.00 90 1024.7
20240521082429 48 152 1.0 1.0 0.00 0.00 0.00 90 1024.7
20240521081929 48 168 0.0 0.0 0.00 0.00 0.00 89 1024.7
20240521081427 48 170 0.0 1.0 0.00 0.00 0.00 89 1024.7
20240521080927 48 187 0.0 0.0 0.00 0.00 0.00 89 1024.7
20240521080426 48 154 0.0 0.0 0.00 0.00 0.00 89 1024.8
20240521075925 48 215 0.0 0.0 0.00 0.00 0.00 88 1024.8
20240521075423 49 157 0.0 0.0 0.00 0.00 0.00 87 1024.6
20240521074923 49 234 0.0 1.0 0.00 0.00 0.00 86 1024.9
20240521074423 49 172 1.0 1.0 0.00 0.00 0.00 85 1024.8
20240521073921 50 248 1.0 1.0 0.00 0.00 0.00 85 1025.0
20240521073421 50 179 0.0 1.0 0.00 0.00 0.00 84 1024.9
20240521072920 50 199 2.0 3.0 0.00 0.00 0.00 83 1024.9
20240521072419 50 192 5.0 8.0 0.00 0.00 0.00 83 1024.8
20240521071916 51 210 2.0 3.0 0.00 0.00 0.00 83 1025.0
20240521071416 51 228 3.0 6.0 0.00 0.00 0.00 82 1024.8
20240521070915 51 228 3.0 6.0 0.00 0.00 0.00 82 1025.2
20240521070414 51 201 5.0 13.0 0.00 0.00 0.00 82 1025.2
20240521065914 51 266 5.0 13.0 0.00 0.00 0.00 81 1025.1
20240521065412 51 229 3.0 5.0 0.00 0.00 0.00 82 1025.2
20240521064910 51 308 5.0 8.0 0.00 0.00 0.00 82 1025.0
20240521064409 51 239 2.0 8.0 0.00 0.00 0.00 82 1025.0
20240521063907 51 190 5.0 9.0 0.00 0.00 0.00 81 1025.1
20240521063405 52 234 4.0 6.0 0.00 0.00 0.00 81 1025.0
20240521062904 52 249 5.0 6.0 0.00 0.00 0.00 81 1025.1
20240521062404 52 216 0.0 2.0 0.00 0.00 0.00 81 1025.0
20240521061904 52 186 1.0 3.0 0.00 0.00 0.00 81 1024.9
20240521061402 52 230 3.0 9.0 0.00 0.00 0.00 81 1025.1
20240521060900 53 185 3.0 6.0 0.00 0.00 0.00 80 1025.2
20240521060358 53 205 3.0 6.0 0.00 0.00 0.00 80 1025.0
20240521055857 53 212 3.0 13.0 0.00 0.00 0.00 79 1025.0
20240521055355 53 251 5.0 9.0 0.00 0.00 0.00 79 1024.9
20240521054853 54 221 3.0 3.0 0.00 0.00 0.00 80 1025.0
20240521054353 54 246 3.0 8.0 0.00 0.00 0.00 78 1024.9
20240521053852 54 167 2.0 3.0 0.00 0.00 0.00 78 1025.1
20240521053352 54 216 3.0 9.0 0.00 0.00 0.00 77 1025.1
20240521052851 55 233 1.0 9.0 0.00 0.00 0.00 77 1025.0
20240521052351 55 246 1.0 9.0 0.00 0.00 0.00 76 1024.8
20240521051851 55 246 6.0 7.0 0.00 0.00 0.00 75 1024.8
20240521051349 55 209 5.0 8.0 0.00 0.00 0.00 74 1024.7
20240521050847 55 238 3.0 8.0 0.00 0.00 0.00 75 1024.6
20240521050345 55 246 6.0 10.0 0.00 0.00 0.00 75 1024.8
20240521045844 55 255 3.0 10.0 0.00 0.00 0.00 75 1024.6
20240521045342 55 225 3.0 7.0 0.00 0.00 0.00 76 1024.6
20240521044840 56 256 3.0 6.0 0.00 0.00 0.00 76 1024.6
20240521044339 56 245 5.0 7.0 0.00 0.00 0.00 76 1024.6
20240521043838 56 143 2.0 3.0 0.00 0.00 0.00 76 1024.5
20240521043337 56 241 4.0 6.0 0.00 0.00 0.00 76 1024.5
20240521042836 56 213 2.0 3.0 0.00 0.00 0.00 77 1024.4
20240521042335 57 212 4.0 5.0 0.00 0.00 0.00 77 1024.6
20240521041834 57 245 5.0 7.0 0.00 0.00 0.00 76 1024.5
20240521041332 57 226 3.0 6.0 0.00 0.00 0.00 77 1024.4
20240521040831 57 220 1.0 6.0 0.00 0.00 0.00 77 1024.5
20240521040328 57 234 1.0 5.0 0.00 0.00 0.00 75 1024.4
20240521035826 58 230 4.0 6.0 0.00 0.00 0.00 74 1024.3
20240521035325 58 238 2.0 3.0 0.00 0.00 0.00 69 1024.1
20240521034825 58 206 0.0 2.0 0.00 0.00 0.00 66 1024.3
20240521034324 59 237 1.0 1.0 0.00 0.00 0.00 65 1024.4
20240521033824 59 235 0.0 2.0 0.00 0.00 0.00 66 1024.4
20240521033322 59 257 2.0 2.0 0.00 0.00 0.00 64 1024.4
20240521032822 60 214 0.0 5.0 0.00 0.00 0.00 62 1024.4
20240521032322 60 228 1.0 5.0 0.00 0.00 0.00 62 1024.5
20240521031822 60 114 0.0 2.0 0.00 0.00 0.00 62 1024.4
20240521031320 60 176 0.0 2.0 0.00 0.00 0.00 64 1024.4
20240521030819 60 174 0.0 6.0 0.00 0.00 0.00 66 1024.3
20240521030317 60 210 0.0 2.0 0.00 0.00 0.00 68 1024.2
20240521025816 60 198 3.0 6.0 0.00 0.00 0.00 67 1024.4
20240521025315 61 258 2.0 2.0 0.00 0.00 0.00 63 1024.2
20240521024815 61 226 1.0 5.0 0.00 0.00 0.00 62 1024.3
20240521024314 62 227 1.0 1.0 0.00 0.00 0.00 65 1024.3
20240521023812 62 203 1.0 2.0 0.00 0.00 0.00 60 1024.2
20240521023312 62 240 1.0 2.0 0.00 0.00 0.00 59 1024.0
20240521022811 62 225 1.0 2.0 0.00 0.00 0.00 59 1024.0
20240521022310 62 218 1.0 2.0 0.00 0.00 0.00 59 1024.1
20240521021808 63 200 0.0 1.0 0.00 0.00 0.00 63 1024.3
20240521021307 63 226 1.0 1.0 0.00 0.00 0.00 57 1024.2
20240521020805 63 226 1.0 1.0 0.00 0.00 0.00 55 1024.2
20240521020304 63 209 1.0 1.0 0.00 0.00 0.00 56 1024.3
20240521015759 62 198 2.0 3.0 0.00 0.00 0.00 56 1024.2
20240521015257 63 219 0.0 1.0 0.00 0.00 0.00 58 1024.3
20240521014755 62 224 1.0 1.0 0.00 0.00 0.00 55 1024.2
20240521014253 63 223 0.0 2.0 0.00 0.00 0.00 55 1024.1
20240521013751 63 205 1.0 2.0 0.00 0.00 0.00 54 1024.4
20240521013250 63 228 0.0 2.0 0.00 0.00 0.00 54 1024.2
20240521012748 63 190 1.0 3.0 0.00 0.00 0.00 53 1024.4
20240521012247 63 233 2.0 3.0 0.00 0.00 0.00 53 1024.1
20240521011739 64 235 3.0 3.0 0.00 0.00 0.00 53 1024.2
20240521011237 63 254 0.0 1.0 0.00 0.00 0.00 52 1024.4
20240521010736 63 210 0.0 2.0 0.00 0.00 0.00 54 1024.2
20240521010235 63 211 2.0 3.0 0.00 0.00 0.00 54 1024.5
20240521005734 63 212 2.0 3.0 0.00 0.00 0.00 54 1024.5
20240521005233 62 242 3.0 5.0 0.00 0.00 0.00 55 1024.4
20240521004732 62 254 6.0 7.0 0.00 0.00 0.00 55 1024.5
20240521004230 62 255 3.0 6.0 0.00 0.00 0.00 55 1024.5
20240521003728 63 248 4.0 6.0 0.00 0.00 0.00 54 1024.3
20240521003227 64 249 2.0 6.0 0.00 0.00 0.00 52 1024.5
20240521002726 64 243 2.0 5.0 0.00 0.00 0.00 52 1024.6
20240521002225 64 256 10.0 15.0 0.00 0.00 0.00 51 1024.6
20240521001723 64 237 1.0 3.0 0.00 0.00 0.00 53 1024.7
20240521001219 63 242 1.0 5.0 0.00 0.00 0.00 54 1024.9
20240521000719 64 259 4.0 5.0 0.00 0.00 0.00 53 1024.9
20240521000218 64 273 9.0 9.0 0.00 0.00 0.00 50 1024.8
20240520235715 65 334 11.0 13.0 0.00 0.00 0.00 52 1024.9
20240520235214 65 326 7.0 8.0 0.00 0.00 0.00 53 1024.8
20240520234714 64 335 9.0 17.0 0.00 0.00 0.00 52 1024.8
20240520234214 64 328 6.0 9.0 0.00 0.00 0.00 54 1024.8
20240520233712 64 322 6.0 11.0 0.00 0.00 0.00 54 1025.0
20240520233212 65 258 8.0 9.0 0.00 0.00 0.00 54 1025.1
20240520232712 66 264 8.0 10.0 0.00 0.00 0.00 52 1025.3
20240520232210 64 220 5.0 11.0 0.00 0.00 0.00 54 1025.2
20240520231709 64 252 3.0 6.0 0.00 0.00 0.00 56 1025.4
20240520231208 63 189 9.0 13.0 0.00 0.00 0.00 57 1025.3
20240520230708 64 214 7.0 15.0 0.00 0.00 0.00 57 1025.2
20240520230207 64 246 2.0 8.0 0.00 0.00 0.00 58 1025.5
20240520225706 64 212 8.0 11.0 0.00 0.00 0.00 58 1025.5
20240520225206 63 197 7.0 13.0 0.00 0.00 0.00 60 1025.6
20240520224704 64 247 2.0 7.0 0.00 0.00 0.00 57 1025.4
20240520224203 63 235 3.0 5.0 0.00 0.00 0.00 60 1025.8
20240520223701 62 326 3.0 7.0 0.00 0.00 0.00 61 1025.8
20240520223200 62 267 3.0 9.0 0.00 0.00 0.00 60 1025.8
20240520222659 62 248 3.0 7.0 0.00 0.00 0.00 62 1025.6
20240520222158 62 296 2.0 10.0 0.00 0.00 0.00 61 1025.9
20240520221657 62 237 11.0 13.0 0.00 0.00 0.00 61 1026.1
20240520221157 62 194 2.0 7.0 0.00 0.00 0.00 61 1025.8
20240520220655 60 234 3.0 7.0 0.00 0.00 0.00 61 1026.2
20240520220154 61 205 4.0 6.0 0.00 0.00 0.00 60 1026.1
20240520215648 61 245 3.0 6.0 0.00 0.00 0.00 61 1026.1
20240520215147 60 206 3.0 5.0 0.00 0.00 0.00 58 1026.1
20240520214646 60 222 2.0 7.0 0.00 0.00 0.00 62 1026.2
20240520214144 60 203 3.0 7.0 0.00 0.00 0.00 60 1026.3
20240520213644 60 232 5.0 13.0 0.00 0.00 0.00 61 1026.2
20240520213142 60 210 2.0 5.0 0.00 0.00 0.00 61 1026.4
20240520212640 60 231 7.0 9.0 0.00 0.00 0.00 61 1026.4
20240520212139 60 230 3.0 5.0 0.00 0.00 0.00 63 1026.4
20240520211638 59 230 5.0 8.0 0.00 0.00 0.00 63 1026.3
20240520211137 59 234 4.0 6.0 0.00 0.00 0.00 62 1026.3
20240520210635 59 232 4.0 8.0 0.00 0.00 0.00 62 1026.6
20240520210133 59 229 9.0 13.0 0.00 0.00 0.00 62 1026.5